N124TL KBED-KPYM
Flight info
| Callsign | N124TL |
|---|---|
| Flight time | 0h 20m |
| Altitude | 2500 |
| Route | VFR NORTH WEST |
| Aircraft | BE58/L-VGD/C |
Departure
| Time | 2026-04-26 12:05 |
|---|---|
| Airport | Laurence G Hanscom Field (KBED) |
Arrival
| Time | 2026-04-26 12:25 |
|---|---|
| Airport | Plymouth Municipal Airport (KPYM) |
| Time | Latitude | Longitude | Altitude | Speed | Heading |
|---|---|---|---|---|---|
| 2026-04-26 11:57 | 42.46609 | -71.28268 | 122 ft | 0 kts | 7° |
| 2026-04-26 12:02 | 42.46621 | -71.28265 | 122 ft | 6 kts | 17° |
| 2026-04-26 12:02 | 42.46654 | -71.28191 | 122 ft | 14 kts | 86° |
| 2026-04-26 12:03 | 42.46656 | -71.27993 | 122 ft | 20 kts | 91° |
| 2026-04-26 12:03 | 42.46653 | -71.27819 | 121 ft | 23 kts | 91° |
| 2026-04-26 12:03 | 42.46744 | -71.27712 | 121 ft | 14 kts | 69° |
| 2026-04-26 12:03 | 42.46768 | -71.27618 | 121 ft | 9 kts | 32° |
| 2026-04-26 12:04 | 42.46912 | -71.27590 | 121 ft | 19 kts | 340° |
| 2026-04-26 12:04 | 42.46974 | -71.27792 | 122 ft | 56 kts | 277° |
| 2026-04-26 12:04 | 42.47058 | -71.28648 | 269 ft | 111 kts | 278° |
| 2026-04-26 12:04 | 42.47191 | -71.29785 | 602 ft | 134 kts | 279° |
| 2026-04-26 12:05 | 42.47323 | -71.31103 | 1016 ft | 146 kts | 278° |
| 2026-04-26 12:05 | 42.47426 | -71.32494 | 1469 ft | 153 kts | 271° |
| 2026-04-26 12:05 | 42.47027 | -71.33821 | 1917 ft | 159 kts | 225° |
| 2026-04-26 12:05 | 42.46031 | -71.34460 | 2226 ft | 168 kts | 184° |
| 2026-04-26 12:06 | 42.44820 | -71.34132 | 2116 ft | 186 kts | 145° |
| 2026-04-26 12:06 | 42.44062 | -71.32726 | 2095 ft | 190 kts | 105° |
| 2026-04-26 12:06 | 42.43888 | -71.30939 | 2098 ft | 193 kts | 97° |
| 2026-04-26 12:06 | 42.43592 | -71.29148 | 2097 ft | 196 kts | 104° |
| 2026-04-26 12:07 | 42.43095 | -71.27412 | 2094 ft | 198 kts | 111° |
| 2026-04-26 12:07 | 42.42553 | -71.25697 | 2086 ft | 193 kts | 111° |
| 2026-04-26 12:07 | 42.42040 | -71.24091 | 2086 ft | 177 kts | 111° |
| 2026-04-26 12:07 | 42.41557 | -71.22597 | 2085 ft | 168 kts | 111° |
| 2026-04-26 12:08 | 42.41081 | -71.21124 | 1831 ft | 174 kts | 111° |
| 2026-04-26 12:08 | 42.40601 | -71.19643 | 1801 ft | 167 kts | 111° |
| 2026-04-26 12:08 | 42.40197 | -71.18214 | 1816 ft | 160 kts | 105° |
| 2026-04-26 12:08 | 42.39993 | -71.16763 | 1821 ft | 156 kts | 101° |
| 2026-04-26 12:09 | 42.39688 | -71.15344 | 1823 ft | 155 kts | 105° |
| 2026-04-26 12:09 | 42.39367 | -71.13950 | 1823 ft | 154 kts | 105° |
| 2026-04-26 12:09 | 42.39043 | -71.12566 | 1823 ft | 154 kts | 105° |
| 2026-04-26 12:09 | 42.38717 | -71.11189 | 1822 ft | 154 kts | 105° |
| 2026-04-26 12:10 | 42.38384 | -71.09793 | 1823 ft | 154 kts | 105° |
| 2026-04-26 12:10 | 42.37904 | -71.08518 | 1826 ft | 156 kts | 129° |
| 2026-04-26 12:10 | 42.37071 | -71.07541 | 1826 ft | 159 kts | 143° |
| 2026-04-26 12:10 | 42.36115 | -71.06769 | 1825 ft | 160 kts | 148° |
| 2026-04-26 12:11 | 42.35106 | -71.06107 | 1826 ft | 161 kts | 151° |
| 2026-04-26 12:11 | 42.34095 | -71.05463 | 1826 ft | 161 kts | 152° |
| 2026-04-26 12:11 | 42.33071 | -71.04806 | 1825 ft | 161 kts | 151° |
| 2026-04-26 12:11 | 42.32070 | -71.04102 | 1826 ft | 160 kts | 147° |
| 2026-04-26 12:12 | 42.31110 | -71.03343 | 1827 ft | 160 kts | 146° |
| 2026-04-26 12:12 | 42.30136 | -71.02575 | 1828 ft | 161 kts | 146° |
| 2026-04-26 12:12 | 42.29165 | -71.01819 | 1827 ft | 160 kts | 146° |
| 2026-04-26 12:12 | 42.28525 | -71.01321 | 1827 ft | 160 kts | 146° |
| 2026-04-26 12:13 | 42.27228 | -71.00320 | 1828 ft | 160 kts | 146° |
| 2026-04-26 12:13 | 42.26260 | -70.99569 | 1830 ft | 160 kts | 146° |
| 2026-04-26 12:13 | 42.25279 | -70.98820 | 1830 ft | 160 kts | 147° |
| 2026-04-26 12:13 | 42.24299 | -70.98077 | 1830 ft | 160 kts | 147° |
| 2026-04-26 12:14 | 42.23328 | -70.97339 | 1830 ft | 161 kts | 147° |
| 2026-04-26 12:14 | 42.22351 | -70.96598 | 1831 ft | 161 kts | 147° |
| 2026-04-26 12:14 | 42.21371 | -70.95854 | 1830 ft | 161 kts | 147° |
| 2026-04-26 12:14 | 42.20390 | -70.95111 | 1831 ft | 161 kts | 147° |
| 2026-04-26 12:15 | 42.19420 | -70.94376 | 1833 ft | 161 kts | 147° |
| 2026-04-26 12:15 | 42.18445 | -70.93638 | 1836 ft | 160 kts | 147° |
| 2026-04-26 12:15 | 42.17466 | -70.92897 | 1837 ft | 160 kts | 147° |
| 2026-04-26 12:15 | 42.16489 | -70.92158 | 1840 ft | 159 kts | 147° |
| 2026-04-26 12:16 | 42.15523 | -70.91426 | 1839 ft | 159 kts | 146° |
| 2026-04-26 12:16 | 42.14556 | -70.90694 | 1842 ft | 159 kts | 147° |
| 2026-04-26 12:16 | 42.13595 | -70.89968 | 1841 ft | 159 kts | 147° |
| 2026-04-26 12:16 | 42.12629 | -70.89237 | 1841 ft | 160 kts | 147° |
| 2026-04-26 12:17 | 42.11644 | -70.88493 | 1841 ft | 160 kts | 147° |
| 2026-04-26 12:17 | 42.10678 | -70.87762 | 1840 ft | 160 kts | 147° |
| 2026-04-26 12:17 | 42.09693 | -70.87019 | 1840 ft | 161 kts | 147° |
| 2026-04-26 12:17 | 42.08720 | -70.86285 | 1841 ft | 161 kts | 147° |
| 2026-04-26 12:18 | 42.07745 | -70.85549 | 1840 ft | 161 kts | 147° |
| 2026-04-26 12:18 | 42.06761 | -70.84807 | 1841 ft | 161 kts | 147° |
| 2026-04-26 12:18 | 42.05787 | -70.84074 | 1841 ft | 160 kts | 147° |
| 2026-04-26 12:18 | 42.04814 | -70.83340 | 1840 ft | 160 kts | 147° |
| 2026-04-26 12:19 | 42.03839 | -70.82606 | 1838 ft | 160 kts | 147° |
| 2026-04-26 12:19 | 42.02873 | -70.81877 | 1840 ft | 159 kts | 146° |
| 2026-04-26 12:19 | 42.01890 | -70.81138 | 1842 ft | 160 kts | 146° |
| 2026-04-26 12:19 | 42.00924 | -70.80410 | 1841 ft | 160 kts | 146° |
| 2026-04-26 12:20 | 41.99934 | -70.79664 | 1724 ft | 166 kts | 147° |
| 2026-04-26 12:20 | 41.98943 | -70.78919 | 1462 ft | 161 kts | 147° |
| 2026-04-26 12:20 | 41.97971 | -70.78188 | 1193 ft | 158 kts | 148° |
| 2026-04-26 12:20 | 41.97036 | -70.77486 | 1091 ft | 147 kts | 148° |
| 2026-04-26 12:21 | 41.96188 | -70.76851 | 1115 ft | 130 kts | 148° |
| 2026-04-26 12:21 | 41.95409 | -70.76264 | 1132 ft | 136 kts | 148° |
| 2026-04-26 12:21 | 41.94533 | -70.75624 | 1147 ft | 149 kts | 153° |
| 2026-04-26 12:21 | 41.93530 | -70.75119 | 1135 ft | 156 kts | 156° |
| 2026-04-26 12:22 | 41.92529 | -70.74606 | 1156 ft | 153 kts | 153° |
| 2026-04-26 12:22 | 41.91636 | -70.73820 | 1062 ft | 155 kts | 139° |
| 2026-04-26 12:22 | 41.90862 | -70.72855 | 1027 ft | 147 kts | 132° |
| 2026-04-26 12:22 | 41.90196 | -70.71865 | 1050 ft | 136 kts | 115° |
| 2026-04-26 12:23 | 41.90281 | -70.70748 | 1110 ft | 123 kts | 53° |
| 2026-04-26 12:23 | 41.90915 | -70.69922 | 997 ft | 125 kts | 43° |
| 2026-04-26 12:23 | 41.91543 | -70.69194 | 968 ft | 118 kts | 41° |
| 2026-04-26 12:23 | 41.92267 | -70.68873 | 989 ft | 113 kts | 347° |
| 2026-04-26 12:24 | 41.92926 | -70.69595 | 770 ft | 127 kts | 316° |
| 2026-04-26 12:24 | 41.93225 | -70.70565 | 846 ft | 117 kts | 259° |
| 2026-04-26 12:24 | 41.92731 | -70.71347 | 719 ft | 112 kts | 211° |
| 2026-04-26 12:25 | 41.91462 | -70.72508 | 249 ft | 106 kts | 218° |
| 2026-04-26 12:25 | 41.90953 | -70.73064 | 150 ft | 77 kts | 220° |
| 2026-04-26 12:25 | 41.90731 | -70.73325 | 146 ft | 10 kts | 269° |
| 2026-04-26 12:25 | 41.90810 | -70.73373 | 146 ft | 19 kts | 19° |
| 2026-04-26 12:26 | 41.90845 | -70.73349 | 147 ft | 0 kts | 41° |